sensor_id;sensor_type;location;lat;lon;timestamp;pressure;altitude;pressure_sealevel;temperature;humidity
21588;BME280;10956;48.878;13.316;2023-05-22T00:02:03;94013.56;;;15.34;79.58
21588;BME280;10956;48.878;13.316;2023-05-22T00:04:30;94021.41;;;15.39;79.11
21588;BME280;10956;48.878;13.316;2023-05-22T00:06:56;94005.19;;;15.41;79.18
21588;BME280;10956;48.878;13.316;2023-05-22T00:09:23;94008.44;;;15.38;79.59
21588;BME280;10956;48.878;13.316;2023-05-22T00:11:49;94010.25;;;15.29;80.05
21588;BME280;10956;48.878;13.316;2023-05-22T00:14:15;94013.00;;;15.24;80.11
21588;BME280;10956;48.878;13.316;2023-05-22T00:16:40;94013.00;;;15.24;80.12
21588;BME280;10956;48.878;13.316;2023-05-22T00:19:06;94007.69;;;15.24;80.01
21588;BME280;10956;48.878;13.316;2023-05-22T00:21:37;94019.41;;;15.23;80.01
21588;BME280;10956;48.878;13.316;2023-05-22T00:24:03;94005.16;;;15.18;80.39
21588;BME280;10956;48.878;13.316;2023-05-22T00:26:28;94008.09;;;15.17;80.47
21588;BME280;10956;48.878;13.316;2023-05-22T00:28:54;94007.91;;;15.13;81.07
21588;BME280;10956;48.878;13.316;2023-05-22T00:31:19;94009.28;;;15.11;81.35
21588;BME280;10956;48.878;13.316;2023-05-22T00:33:45;94003.78;;;15.07;81.20
21588;BME280;10956;48.878;13.316;2023-05-22T00:36:10;94002.81;;;15.03;81.27
21588;BME280;10956;48.878;13.316;2023-05-22T00:38:36;93998.50;;;15.07;81.26
21588;BME280;10956;48.878;13.316;2023-05-22T00:41:04;94005.19;;;15.05;81.48
21588;BME280;10956;48.878;13.316;2023-05-22T00:43:30;94002.53;;;15.05;81.56
21588;BME280;10956;48.878;13.316;2023-05-22T00:45:55;94005.47;;;15.03;81.85
21588;BME280;10956;48.878;13.316;2023-05-22T00:48:21;93999.50;;;14.98;81.89
21588;BME280;10956;48.878;13.316;2023-05-22T00:50:51;94005.38;;;14.95;82.39
21588;BME280;10956;48.878;13.316;2023-05-22T00:53:21;94001.84;;;14.99;81.90
21588;BME280;10956;48.878;13.316;2023-05-22T00:55:48;93994.97;;;14.98;82.10
21588;BME280;10956;48.878;13.316;2023-05-22T00:58:16;93991.03;;;14.96;81.34
21588;BME280;10956;48.878;13.316;2023-05-22T01:00:42;93987.97;;;15.02;81.25
21588;BME280;10956;48.878;13.316;2023-05-22T01:03:09;93987.50;;;15.00;81.76
21588;BME280;10956;48.878;13.316;2023-05-22T01:05:36;93990.81;;;15.06;81.29
21588;BME280;10956;48.878;13.316;2023-05-22T01:08:03;93992.28;;;15.12;80.69
21588;BME280;10956;48.878;13.316;2023-05-22T01:10:29;93988.25;;;15.14;80.69
21588;BME280;10956;48.878;13.316;2023-05-22T01:16:08;93998.50;;;15.07;80.56
21588;BME280;10956;48.878;13.316;2023-05-22T01:18:54;93990.03;;;15.05;80.53
21588;BME280;10956;48.878;13.316;2023-05-22T01:21:29;93992.41;;;15.07;80.12
21588;BME280;10956;48.878;13.316;2023-05-22T01:30:02;93990.53;;;15.07;79.74
21588;BME280;10956;48.878;13.316;2023-05-22T01:32:33;93987.28;;;15.10;79.38
21588;BME280;10956;48.878;13.316;2023-05-22T01:35:00;93986.91;;;15.03;79.95
21588;BME280;10956;48.878;13.316;2023-05-22T01:37:26;93981.59;;;15.03;79.55
21588;BME280;10956;48.878;13.316;2023-05-22T01:39:53;93989.38;;;15.00;79.85
21588;BME280;10956;48.878;13.316;2023-05-22T01:42:20;93993.41;;;14.97;79.72
21588;BME280;10956;48.878;13.316;2023-05-22T01:44:47;93990.84;;;14.92;80.09
21588;BME280;10956;48.878;13.316;2023-05-22T01:47:12;93982.69;;;14.89;79.97
21588;BME280;10956;48.878;13.316;2023-05-22T01:49:39;93986.72;;;14.86;79.94
21588;BME280;10956;48.878;13.316;2023-05-22T01:52:11;93995.00;;;14.84;80.20
21588;BME280;10956;48.878;13.316;2023-05-22T01:54:43;93982.59;;;14.80;80.40
21588;BME280;10956;48.878;13.316;2023-05-22T01:57:25;93986.94;;;14.76;80.29
21588;BME280;10956;48.878;13.316;2023-05-22T01:59:58;93989.88;;;14.74;80.55
21588;BME280;10956;48.878;13.316;2023-05-22T02:02:27;93982.03;;;14.69;80.75
21588;BME280;10956;48.878;13.316;2023-05-22T02:04:58;93981.84;;;14.66;80.63
21588;BME280;10956;48.878;13.316;2023-05-22T02:07:24;93979.78;;;14.63;80.46
21588;BME280;10956;48.878;13.316;2023-05-22T02:09:51;93978.69;;;14.64;80.60
21588;BME280;10956;48.878;13.316;2023-05-22T02:12:18;93978.09;;;14.67;80.96
21588;BME280;10956;48.878;13.316;2023-05-22T02:14:44;93974.84;;;14.70;80.14
21588;BME280;10956;48.878;13.316;2023-05-22T02:17:10;93973.78;;;14.71;80.03
21588;BME280;10956;48.878;13.316;2023-05-22T02:19:35;93972.31;;;14.65;80.11
21588;BME280;10956;48.878;13.316;2023-05-22T02:22:01;93963.97;;;14.58;80.78
21588;BME280;10956;48.878;13.316;2023-05-22T02:24:28;93964.75;;;14.58;80.67
21588;BME280;10956;48.878;13.316;2023-05-22T02:26:54;93966.13;;;14.56;80.26
21588;BME280;10956;48.878;13.316;2023-05-22T02:29:20;93959.25;;;14.54;80.36
21588;BME280;10956;48.878;13.316;2023-05-22T02:31:45;93958.75;;;14.52;80.49
21588;BME280;10956;48.878;13.316;2023-05-22T02:34:11;93959.75;;;14.57;80.12
21588;BME280;10956;48.878;13.316;2023-05-22T02:36:36;93955.72;;;14.59;80.10
21588;BME280;10956;48.878;13.316;2023-05-22T02:39:01;93954.72;;;14.55;80.42
21588;BME280;10956;48.878;13.316;2023-05-22T02:41:27;93948.66;;;14.54;80.18
21588;BME280;10956;48.878;13.316;2023-05-22T02:43:52;93947.66;;;14.50;80.52
21588;BME280;10956;48.878;13.316;2023-05-22T02:46:18;93946.69;;;14.46;80.89
21588;BME280;10956;48.878;13.316;2023-05-22T02:48:43;93947.28;;;14.43;80.71
21588;BME280;10956;48.878;13.316;2023-05-22T02:51:09;93956.31;;;14.42;80.50
21588;BME280;10956;48.878;13.316;2023-05-22T02:53:35;93956.88;;;14.39;80.54
21588;BME280;10956;48.878;13.316;2023-05-22T02:56:08;93948.44;;;14.37;80.85
21588;BME280;10956;48.878;13.316;2023-05-22T02:58:35;93953.44;;;14.39;81.29
21588;BME280;10956;48.878;13.316;2023-05-22T03:01:00;93951.56;;;14.39;81.46
21588;BME280;10956;48.878;13.316;2023-05-22T03:03:27;93955.31;;;14.38;80.99
21588;BME280;10956;48.878;13.316;2023-05-22T03:05:53;93952.34;;;14.40;80.45
21588;BME280;10956;48.878;13.316;2023-05-22T03:08:22;93952.06;;;14.41;80.46
21588;BME280;10956;48.878;13.316;2023-05-22T03:10:48;93944.09;;;14.41;80.22
21588;BME280;10956;48.878;13.316;2023-05-22T03:13:13;93952.59;;;14.43;79.90
21588;BME280;10956;48.878;13.316;2023-05-22T03:15:38;93957.88;;;14.43;80.77
21588;BME280;10956;48.878;13.316;2023-05-22T03:18:04;93950.72;;;14.44;80.59
21588;BME280;10956;48.878;13.316;2023-05-22T03:20:30;93949.63;;;14.45;79.85
21588;BME280;10956;48.878;13.316;2023-05-22T03:22:55;93951.41;;;14.49;79.82
21588;BME280;10956;48.878;13.316;2023-05-22T03:25:21;93947.06;;;14.53;79.40
21588;BME280;10956;48.878;13.316;2023-05-22T03:27:47;93952.09;;;14.55;79.08
21588;BME280;10956;48.878;13.316;2023-05-22T03:30:12;93954.03;;;14.63;78.62
21588;BME280;10956;48.878;13.316;2023-05-22T03:32:38;93953.75;;;14.65;78.27
21588;BME280;10956;48.878;13.316;2023-05-22T03:35:04;93956.09;;;14.66;78.18
21588;BME280;10956;48.878;13.316;2023-05-22T03:37:29;93955.69;;;14.73;77.68
21588;BME280;10956;48.878;13.316;2023-05-22T03:39:55;93949.59;;;14.86;76.90
21588;BME280;10956;48.878;13.316;2023-05-22T03:42:20;93952.81;;;14.97;76.32
21588;BME280;10956;48.878;13.316;2023-05-22T03:44:45;93948.56;;;15.09;75.96
21588;BME280;10956;48.878;13.316;2023-05-22T03:47:11;93955.03;;;15.17;75.90
21588;BME280;10956;48.878;13.316;2023-05-22T03:49:36;93956.19;;;15.25;75.57
21588;BME280;10956;48.878;13.316;2023-05-22T03:52:02;93957.63;;;15.31;74.97
21588;BME280;10956;48.878;13.316;2023-05-22T03:54:27;93956.91;;;15.39;74.77
21588;BME280;10956;48.878;13.316;2023-05-22T03:56:54;93957.66;;;15.53;73.95
21588;BME280;10956;48.878;13.316;2023-05-22T03:59:19;93955.06;;;15.62;73.65
21588;BME280;10956;48.878;13.316;2023-05-22T04:01:45;93952.47;;;15.70;73.08
21588;BME280;10956;48.878;13.316;2023-05-22T04:04:11;93954.41;;;15.78;73.00
21588;BME280;10956;48.878;13.316;2023-05-22T04:06:37;93959.47;;;15.89;73.01
21588;BME280;10956;48.878;13.316;2023-05-22T04:09:10;93954.69;;;15.99;72.27
21588;BME280;10956;48.878;13.316;2023-05-22T04:11:37;93958.94;;;16.09;71.95
21588;BME280;10956;48.878;13.316;2023-05-22T04:14:06;93957.13;;;16.18;71.27
21588;BME280;10956;48.878;13.316;2023-05-22T04:16:32;93953.88;;;16.30;70.89
21588;BME280;10956;48.878;13.316;2023-05-22T04:18:57;93953.78;;;16.43;70.05
21588;BME280;10956;48.878;13.316;2023-05-22T04:21:25;93958.81;;;16.54;69.04
21588;BME280;10956;48.878;13.316;2023-05-22T04:23:51;93952.00;;;16.70;68.56
21588;BME280;10956;48.878;13.316;2023-05-22T04:26:16;93962.06;;;16.82;68.45
21588;BME280;10956;48.878;13.316;2023-05-22T04:28:45;93953.31;;;16.98;67.61
21588;BME280;10956;48.878;13.316;2023-05-22T04:31:11;93959.91;;;17.09;66.61
21588;BME280;10956;48.878;13.316;2023-05-22T04:33:36;93959.63;;;17.20;67.00
21588;BME280;10956;48.878;13.316;2023-05-22T04:36:03;93958.38;;;17.26;66.39
21588;BME280;10956;48.878;13.316;2023-05-22T04:38:29;93960.41;;;17.37;65.38
21588;BME280;10956;48.878;13.316;2023-05-22T04:40:55;93958.69;;;17.50;65.22
21588;BME280;10956;48.878;13.316;2023-05-22T04:43:20;93970.13;;;17.59;65.40
21588;BME280;10956;48.878;13.316;2023-05-22T04:45:51;93958.19;;;17.65;65.04
21588;BME280;10956;48.878;13.316;2023-05-22T04:48:16;93963.06;;;17.81;64.93
21588;BME280;10956;48.878;13.316;2023-05-22T04:50:41;93962.44;;;17.84;65.08
21588;BME280;10956;48.878;13.316;2023-05-22T04:53:10;93953.34;;;17.85;65.33
21588;BME280;10956;48.878;13.316;2023-05-22T04:55:37;93950.03;;;17.96;64.81
21588;BME280;10956;48.878;13.316;2023-05-22T04:58:02;93960.34;;;18.06;64.50
21588;BME280;10956;48.878;13.316;2023-05-22T05:00:28;93957.53;;;18.12;64.97
21588;BME280;10956;48.878;13.316;2023-05-22T05:02:54;93951.69;;;18.18;64.99
21588;BME280;10956;48.878;13.316;2023-05-22T05:05:19;93957.81;;;18.19;64.14
21588;BME280;10956;48.878;13.316;2023-05-22T05:07:46;93954.81;;;18.20;63.34
21588;BME280;10956;48.878;13.316;2023-05-22T05:10:12;93949.16;;;18.30;63.48
21588;BME280;10956;48.878;13.316;2023-05-22T05:12:37;93962.59;;;18.43;63.80
21588;BME280;10956;48.878;13.316;2023-05-22T05:15:03;93955.47;;;18.55;62.27
21588;BME280;10956;48.878;13.316;2023-05-22T05:17:29;93955.16;;;18.65;61.05
21588;BME280;10956;48.878;13.316;2023-05-22T05:19:54;93952.44;;;18.74;61.22
21588;BME280;10956;48.878;13.316;2023-05-22T05:22:19;93950.22;;;18.76;60.45
21588;BME280;10956;48.878;13.316;2023-05-22T05:24:45;93953.63;;;18.85;59.67
21588;BME280;10956;48.878;13.316;2023-05-22T05:27:10;93952.16;;;18.96;60.09
21588;BME280;10956;48.878;13.316;2023-05-22T05:29:36;93956.19;;;19.02;60.31
21588;BME280;10956;48.878;13.316;2023-05-22T05:32:01;93956.00;;;19.08;59.56
21588;BME280;10956;48.878;13.316;2023-05-22T05:34:28;93954.06;;;19.17;59.58
21588;BME280;10956;48.878;13.316;2023-05-22T05:36:53;93951.53;;;19.20;59.07
21588;BME280;10956;48.878;13.316;2023-05-22T05:39:21;93951.66;;;19.24;58.95
21588;BME280;10956;48.878;13.316;2023-05-22T05:41:46;93951.00;;;19.27;58.68
21588;BME280;10956;48.878;13.316;2023-05-22T05:44:12;93952.84;;;19.35;59.13
21588;BME280;10956;48.878;13.316;2023-05-22T05:46:37;93946.19;;;19.41;59.72
21588;BME280;10956;48.878;13.316;2023-05-22T05:49:07;93948.19;;;19.44;59.48
21588;BME280;10956;48.878;13.316;2023-05-22T05:51:34;93943.78;;;19.48;58.39
21588;BME280;10956;48.878;13.316;2023-05-22T05:54:00;93946.41;;;19.57;58.80
21588;BME280;10956;48.878;13.316;2023-05-22T05:56:25;93945.88;;;19.63;58.93
21588;BME280;10956;48.878;13.316;2023-05-22T05:58:51;93948.34;;;19.68;59.46
21588;BME280;10956;48.878;13.316;2023-05-22T06:01:16;93944.56;;;19.70;58.95
21588;BME280;10956;48.878;13.316;2023-05-22T06:03:43;93942.47;;;19.75;59.29
21588;BME280;10956;48.878;13.316;2023-05-22T06:06:08;93940.56;;;19.76;59.43
21588;BME280;10956;48.878;13.316;2023-05-22T06:08:34;93941.03;;;19.78;58.94
21588;BME280;10956;48.878;13.316;2023-05-22T06:11:00;93941.59;;;19.83;59.18
21588;BME280;10956;48.878;13.316;2023-05-22T06:13:26;93936.81;;;19.89;58.94
21588;BME280;10956;48.878;13.316;2023-05-22T06:15:51;93943.06;;;19.93;58.97
21588;BME280;10956;48.878;13.316;2023-05-22T06:18:17;93940.84;;;19.95;60.29
21588;BME280;10956;48.878;13.316;2023-05-22T06:20:42;93933.06;;;20.02;61.21
21588;BME280;10956;48.878;13.316;2023-05-22T06:23:07;93930.53;;;20.06;61.45
21588;BME280;10956;48.878;13.316;2023-05-22T06:25:33;93939.13;;;20.11;63.47
21588;BME280;10956;48.878;13.316;2023-05-22T06:27:59;93938.69;;;20.21;61.77
21588;BME280;10956;48.878;13.316;2023-05-22T06:30:25;93933.13;;;20.26;61.02
21588;BME280;10956;48.878;13.316;2023-05-22T06:32:51;93937.47;;;20.31;59.23
21588;BME280;10956;48.878;13.316;2023-05-22T06:35:17;93942.16;;;20.34;59.28
21588;BME280;10956;48.878;13.316;2023-05-22T06:37:42;93931.34;;;20.30;57.76
21588;BME280;10956;48.878;13.316;2023-05-22T06:40:08;93934.47;;;20.32;58.35
21588;BME280;10956;48.878;13.316;2023-05-22T06:42:34;93942.94;;;20.35;57.85
21588;BME280;10956;48.878;13.316;2023-05-22T06:44:59;93928.13;;;20.37;57.37
21588;BME280;10956;48.878;13.316;2023-05-22T06:47:25;93935.63;;;20.44;57.25
21588;BME280;10956;48.878;13.316;2023-05-22T06:49:51;93935.63;;;20.44;57.91
21588;BME280;10956;48.878;13.316;2023-05-22T06:52:16;93941.22;;;20.51;57.23
21588;BME280;10956;48.878;13.316;2023-05-22T06:54:42;93932.84;;;20.52;57.25
21588;BME280;10956;48.878;13.316;2023-05-22T06:57:09;93943.22;;;20.54;56.43
21588;BME280;10956;48.878;13.316;2023-05-22T06:59:34;93941.44;;;20.58;57.33
21588;BME280;10956;48.878;13.316;2023-05-22T07:02:00;93946.13;;;20.61;56.56
21588;BME280;10956;48.878;13.316;2023-05-22T07:04:25;93950.13;;;20.67;57.75
21588;BME280;10956;48.878;13.316;2023-05-22T07:06:51;93947.91;;;20.69;57.23
21588;BME280;10956;48.878;13.316;2023-05-22T07:09:18;93952.59;;;20.72;56.89
21588;BME280;10956;48.878;13.316;2023-05-22T07:11:44;93951.25;;;20.78;57.47
21588;BME280;10956;48.878;13.316;2023-05-22T07:14:10;93958.19;;;20.79;57.15
21588;BME280;10956;48.878;13.316;2023-05-22T07:16:39;93953.81;;;20.75;56.15
21588;BME280;10956;48.878;13.316;2023-05-22T07:19:05;93957.94;;;20.72;55.61
21588;BME280;10956;48.878;13.316;2023-05-22T07:21:33;93951.94;;;20.75;56.00
21588;BME280;10956;48.878;13.316;2023-05-22T07:23:59;93953.03;;;20.74;55.68
21588;BME280;10956;48.878;13.316;2023-05-22T07:26:27;93948.81;;;20.73;55.22
21588;BME280;10956;48.878;13.316;2023-05-22T07:28:54;93953.50;;;20.76;55.60
21588;BME280;10956;48.878;13.316;2023-05-22T07:31:19;93948.56;;;20.78;56.18
21588;BME280;10956;48.878;13.316;2023-05-22T07:33:45;93945.22;;;20.81;56.46
21588;BME280;10956;48.878;13.316;2023-05-22T07:36:10;93949.47;;;20.82;57.42
21588;BME280;10956;48.878;13.316;2023-05-22T07:38:35;93949.47;;;20.82;57.05
21588;BME280;10956;48.878;13.316;2023-05-22T07:41:01;93953.03;;;20.86;56.98
21588;BME280;10956;48.878;13.316;2023-05-22T07:43:29;93949.56;;;20.86;56.56
21588;BME280;10956;48.878;13.316;2023-05-22T07:45:54;93955.03;;;20.89;56.30
21588;BME280;10956;48.878;13.316;2023-05-22T07:48:20;93943.22;;;20.90;56.80
21588;BME280;10956;48.878;13.316;2023-05-22T07:50:45;93950.13;;;20.91;56.82
21588;BME280;10956;48.878;13.316;2023-05-22T07:53:11;93942.53;;;20.93;57.56
21588;BME280;10956;48.878;13.316;2023-05-22T07:55:37;93946.78;;;20.94;56.29
21588;BME280;10956;48.878;13.316;2023-05-22T07:58:03;93946.22;;;20.89;57.46
21588;BME280;10956;48.878;13.316;2023-05-22T08:00:29;93944.78;;;20.91;57.03
21588;BME280;10956;48.878;13.316;2023-05-22T08:02:55;93947.22;;;20.96;56.80
21588;BME280;10956;48.878;13.316;2023-05-22T08:05:20;93948.34;;;20.95;56.57
21588;BME280;10956;48.878;13.316;2023-05-22T08:07:46;93949.22;;;21.00;56.37
21588;BME280;10956;48.878;13.316;2023-05-22T08:10:16;93945.22;;;20.93;55.65
21588;BME280;10956;48.878;13.316;2023-05-22T08:12:41;93942.66;;;20.97;55.30
21588;BME280;10956;48.878;13.316;2023-05-22T08:15:07;93941.88;;;20.96;53.95
21588;BME280;10956;48.878;13.316;2023-05-22T08:17:33;93949.22;;;21.00;55.82
21588;BME280;10956;48.878;13.316;2023-05-22T08:19:58;93945.41;;;21.13;56.43
21588;BME280;10956;48.878;13.316;2023-05-22T08:22:24;93943.28;;;21.18;54.70
21588;BME280;10956;48.878;13.316;2023-05-22T08:24:49;93945.63;;;21.20;53.83
21588;BME280;10956;48.878;13.316;2023-05-22T08:27:14;93952.09;;;21.19;52.15
21588;BME280;10956;48.878;13.316;2023-05-22T08:29:40;93948.78;;;21.22;51.85
21588;BME280;10956;48.878;13.316;2023-05-22T08:32:05;93937.16;;;21.18;52.11
21588;BME280;10956;48.878;13.316;2023-05-22T08:34:31;93944.97;;;21.23;54.60
21588;BME280;10956;48.878;13.316;2023-05-22T08:36:57;93948.78;;;21.22;54.47
21588;BME280;10956;48.878;13.316;2023-05-22T08:39:23;93940.06;;;21.25;53.96
21588;BME280;10956;48.878;13.316;2023-05-22T08:41:49;93944.53;;;21.33;54.62
21588;BME280;10956;48.878;13.316;2023-05-22T08:44:14;93941.59;;;21.38;54.92
21588;BME280;10956;48.878;13.316;2023-05-22T08:46:40;93936.00;;;21.43;53.78
21588;BME280;10956;48.878;13.316;2023-05-22T08:49:08;93948.38;;;21.48;53.12
21588;BME280;10956;48.878;13.316;2023-05-22T08:51:37;93939.31;;;21.52;51.71
21588;BME280;10956;48.878;13.316;2023-05-22T08:54:07;93928.69;;;21.56;52.43
21588;BME280;10956;48.878;13.316;2023-05-22T08:56:33;93932.94;;;21.57;50.51
21588;BME280;10956;48.878;13.316;2023-05-22T08:58:59;93932.59;;;21.58;51.66
21588;BME280;10956;48.878;13.316;2023-05-22T09:01:27;93942.66;;;21.62;51.75
21588;BME280;10956;48.878;13.316;2023-05-22T09:03:53;93933.13;;;21.64;51.13
21588;BME280;10956;48.878;13.316;2023-05-22T09:06:19;93934.34;;;21.67;50.47
21588;BME280;10956;48.878;13.316;2023-05-22T09:08:45;93937.28;;;21.62;52.32
21588;BME280;10956;48.878;13.316;2023-05-22T09:11:10;93932.81;;;21.66;49.55
21588;BME280;10956;48.878;13.316;2023-05-22T09:13:37;93933.25;;;21.68;49.02
21588;BME280;10956;48.878;13.316;2023-05-22T09:16:10;93941.03;;;21.73;50.06
21588;BME280;10956;48.878;13.316;2023-05-22T09:18:37;93934.78;;;21.69;50.57
21588;BME280;10956;48.878;13.316;2023-05-22T09:21:03;93929.63;;;21.76;49.88
21588;BME280;10956;48.878;13.316;2023-05-22T09:23:29;93937.00;;;21.79;50.12
21588;BME280;10956;48.878;13.316;2023-05-22T09:25:56;93937.88;;;21.83;50.18
21588;BME280;10956;48.878;13.316;2023-05-22T09:28:22;93928.94;;;21.79;53.58
21588;BME280;10956;48.878;13.316;2023-05-22T09:30:52;93943.44;;;21.90;53.18
21588;BME280;10956;48.878;13.316;2023-05-22T09:33:19;93940.50;;;21.95;50.24
21588;BME280;10956;48.878;13.316;2023-05-22T09:35:45;93931.75;;;21.98;51.11
21588;BME280;10956;48.878;13.316;2023-05-22T09:38:11;93932.06;;;22.09;51.86
21588;BME280;10956;48.878;13.316;2023-05-22T09:40:38;93929.63;;;22.04;52.72
21588;BME280;10956;48.878;13.316;2023-05-22T09:43:08;93936.41;;;22.13;53.56
21588;BME280;10956;48.878;13.316;2023-05-22T09:45:34;93940.66;;;22.14;51.29
21588;BME280;10956;48.878;13.316;2023-05-22T09:48:00;93934.59;;;22.17;51.97
21588;BME280;10956;48.878;13.316;2023-05-22T09:50:26;93946.88;;;22.18;51.34
21588;BME280;10956;48.878;13.316;2023-05-22T09:52:51;93934.16;;;22.15;51.97
21588;BME280;10956;48.878;13.316;2023-05-22T09:55:19;93947.31;;;22.20;51.19
21588;BME280;10956;48.878;13.316;2023-05-22T09:57:48;93943.84;;;22.20;50.78
21588;BME280;10956;48.878;13.316;2023-05-22T10:00:16;93942.22;;;22.15;54.43
21588;BME280;10956;48.878;13.316;2023-05-22T10:02:45;93944.81;;;22.28;52.16
21588;BME280;10956;48.878;13.316;2023-05-22T10:05:12;93944.56;;;22.33;52.27
21588;BME280;10956;48.878;13.316;2023-05-22T10:07:50;93941.28;;;22.39;50.28
21588;BME280;10956;48.878;13.316;2023-05-22T10:10:23;93949.00;;;22.41;51.33
21588;BME280;10956;48.878;13.316;2023-05-22T10:12:56;93944.84;;;22.43;50.43
21588;BME280;10956;48.878;13.316;2023-05-22T10:15:24;93939.03;;;22.41;52.81
21588;BME280;10956;48.878;13.316;2023-05-22T10:17:50;93939.63;;;22.35;51.72
21588;BME280;10956;48.878;13.316;2023-05-22T10:20:16;93940.06;;;22.37;50.58
21588;BME280;10956;48.878;13.316;2023-05-22T10:22:42;93936.59;;;22.36;48.33
21588;BME280;10956;48.878;13.316;2023-05-22T10:25:08;93930.88;;;22.38;50.02
21588;BME280;10956;48.878;13.316;2023-05-22T10:27:35;93932.97;;;22.44;50.71
21588;BME280;10956;48.878;13.316;2023-05-22T10:33:20;93934.69;;;22.37;54.78
21588;BME280;10956;48.878;13.316;2023-05-22T10:35:50;93927.50;;;22.41;54.29
21588;BME280;10956;48.878;13.316;2023-05-22T10:40:58;93925.34;;;22.62;50.21
21588;BME280;10956;48.878;13.316;2023-05-22T10:43:23;93927.06;;;22.54;47.05
21588;BME280;10956;48.878;13.316;2023-05-22T10:46:01;93930.19;;;22.56;48.40
21588;BME280;10956;48.878;13.316;2023-05-22T10:48:27;93926.91;;;22.63;49.71
21588;BME280;10956;48.878;13.316;2023-05-22T10:50:52;93913.31;;;22.56;51.79
21588;BME280;10956;48.878;13.316;2023-05-22T10:53:30;93911.81;;;22.59;51.07
21588;BME280;10956;48.878;13.316;2023-05-22T10:55:57;93921.09;;;22.61;50.69
21588;BME280;10956;48.878;13.316;2023-05-22T10:58:29;93917.81;;;22.68;49.57
21588;BME280;10956;48.878;13.316;2023-05-22T11:01:15;93906.38;;;22.55;49.90
21588;BME280;10956;48.878;13.316;2023-05-22T11:06:42;93906.47;;;22.59;48.27
21588;BME280;10956;48.878;13.316;2023-05-22T11:09:32;93902.81;;;22.67;50.10
21588;BME280;10956;48.878;13.316;2023-05-22T11:14:52;93900.22;;;22.86;46.78
21588;BME280;10956;48.878;13.316;2023-05-22T11:17:22;93888.00;;;22.88;44.97
21588;BME280;10956;48.878;13.316;2023-05-22T11:20:12;93888.34;;;22.87;46.32
21588;BME280;10956;48.878;13.316;2023-05-22T11:22:40;93888.84;;;22.93;46.85
21588;BME280;10956;48.878;13.316;2023-05-22T11:25:07;93896.91;;;22.93;47.27
21588;BME280;10956;48.878;13.316;2023-05-22T11:27:34;93897.16;;;23.03;44.85
21588;BME280;10956;48.878;13.316;2023-05-22T11:30:00;93896.09;;;23.08;44.38
21588;BME280;10956;48.878;13.316;2023-05-22T11:32:26;93901.47;;;23.08;42.45
21588;BME280;10956;48.878;13.316;2023-05-22T11:34:52;93889.09;;;23.03;41.45
21588;BME280;10956;48.878;13.316;2023-05-22T11:37:18;93896.00;;;23.04;41.37
21588;BME280;10956;48.878;13.316;2023-05-22T11:39:56;93895.94;;;23.01;39.81
21588;BME280;10956;48.878;13.316;2023-05-22T11:42:22;93895.84;;;22.97;42.79
21588;BME280;10956;48.878;13.316;2023-05-22T11:44:48;93892.81;;;22.99;41.80
21588;BME280;10956;48.878;13.316;2023-05-22T11:47:13;93891.25;;;22.98;42.60
21588;BME280;10956;48.878;13.316;2023-05-22T11:49:40;93882.78;;;22.96;41.89
21588;BME280;10956;48.878;13.316;2023-05-22T11:52:06;93878.81;;;22.90;47.73
21588;BME280;10956;48.878;13.316;2023-05-22T11:54:32;93881.66;;;22.97;47.04
21588;BME280;10956;48.878;13.316;2023-05-22T11:56:57;93877.41;;;22.96;41.74
21588;BME280;10956;48.878;13.316;2023-05-22T11:59:23;93886.66;;;22.98;41.64
21588;BME280;10956;48.878;13.316;2023-05-22T12:01:49;93875.91;;;22.98;41.33
21588;BME280;10956;48.878;13.316;2023-05-22T12:04:14;93884.91;;;23.06;42.91
21588;BME280;10956;48.878;13.316;2023-05-22T12:06:41;93873.47;;;23.09;41.61
21588;BME280;10956;48.878;13.316;2023-05-22T12:09:06;93873.88;;;23.11;41.34
21588;BME280;10956;48.878;13.316;2023-05-22T12:11:36;93871.47;;;23.06;47.71
21588;BME280;10956;48.878;13.316;2023-05-22T12:14:02;93884.09;;;23.21;47.35
21588;BME280;10956;48.878;13.316;2023-05-22T12:16:33;93880.84;;;23.31;45.62
21588;BME280;10956;48.878;13.316;2023-05-22T12:18:59;93878.16;;;23.31;42.18
21588;BME280;10956;48.878;13.316;2023-05-22T12:21:28;93871.22;;;23.30;42.17
21588;BME280;10956;48.878;13.316;2023-05-22T12:23:53;93876.16;;;23.28;42.59
21588;BME280;10956;48.878;13.316;2023-05-22T12:26:19;93865.13;;;23.33;42.18
21588;BME280;10956;48.878;13.316;2023-05-22T12:28:45;93877.44;;;23.34;44.92
21588;BME280;10956;48.878;13.316;2023-05-22T12:31:19;93871.94;;;23.27;47.15
21588;BME280;10956;48.878;13.316;2023-05-22T12:33:44;93864.34;;;23.33;46.21
21588;BME280;10956;48.878;13.316;2023-05-22T12:36:09;93862.16;;;23.38;47.10
21588;BME280;10956;48.878;13.316;2023-05-22T12:38:36;93864.50;;;23.40;46.41
21588;BME280;10956;48.878;13.316;2023-05-22T12:41:02;93853.66;;;23.36;44.12
21588;BME280;10956;48.878;13.316;2023-05-22T12:43:28;93859.81;;;23.37;44.08
21588;BME280;10956;48.878;13.316;2023-05-22T12:45:53;93854.81;;;23.35;45.80
21588;BME280;10956;48.878;13.316;2023-05-22T12:48:19;93854.38;;;23.33;47.58
21588;BME280;10956;48.878;13.316;2023-05-22T12:50:45;93857.06;;;23.33;45.14
21588;BME280;10956;48.878;13.316;2023-05-22T12:53:11;93852.97;;;23.39;46.49
21588;BME280;10956;48.878;13.316;2023-05-22T12:55:37;93852.25;;;23.42;43.83
21588;BME280;10956;48.878;13.316;2023-05-22T12:58:03;93848.72;;;23.38;46.58
21588;BME280;10956;48.878;13.316;2023-05-22T13:00:28;93852.41;;;23.49;45.68
21588;BME280;10956;48.878;13.316;2023-05-22T13:02:54;93849.88;;;23.57;43.83
21588;BME280;10956;48.878;13.316;2023-05-22T13:05:19;93851.78;;;23.56;44.32
21588;BME280;10956;48.878;13.316;2023-05-22T13:07:45;93847.88;;;23.53;45.32
21588;BME280;10956;48.878;13.316;2023-05-22T13:10:11;93850.28;;;23.59;45.89